createdAt,value
2023-11-24T00:00:34.984Z,0.00
2023-11-24T00:01:34.949Z,0.00
2023-11-24T00:02:34.875Z,0.00
2023-11-24T00:03:34.947Z,0.00
2023-11-24T00:04:34.815Z,0.00
2023-11-24T00:05:34.835Z,0.00
2023-11-24T00:06:34.859Z,0.00
2023-11-24T00:07:34.815Z,0.00
2023-11-24T00:08:34.780Z,0.00
2023-11-24T00:09:34.808Z,0.00
2023-11-24T00:10:34.766Z,0.00
2023-11-24T00:11:34.772Z,0.00
2023-11-24T00:12:34.859Z,0.00
2023-11-24T00:13:34.745Z,0.00
2023-11-24T00:14:34.746Z,0.00
2023-11-24T00:15:34.804Z,0.00
2023-11-24T00:16:34.767Z,0.00
2023-11-24T00:17:34.795Z,0.00
2023-11-24T00:18:34.732Z,0.00
2023-11-24T00:19:34.688Z,0.00
2023-11-24T00:20:34.636Z,0.00
2023-11-24T00:21:34.704Z,0.00
2023-11-24T00:22:34.617Z,0.00
2023-11-24T00:23:34.644Z,0.00
2023-11-24T00:24:35.170Z,0.00
2023-11-24T00:25:34.618Z,0.00
2023-11-24T00:26:34.574Z,0.00
2023-11-24T00:27:34.598Z,0.00
2023-11-24T00:28:34.573Z,0.00
2023-11-24T00:29:34.615Z,0.00
2023-11-24T00:30:34.596Z,0.00
2023-11-24T00:31:34.540Z,0.00
2023-11-24T00:32:34.552Z,0.00
2023-11-24T00:33:34.675Z,0.00
2023-11-24T00:34:34.601Z,0.00
2023-11-24T00:35:34.564Z,0.00
2023-11-24T00:36:34.586Z,0.00
2023-11-24T00:37:34.505Z,0.00
2023-11-24T00:38:34.483Z,0.00
2023-11-24T00:39:34.519Z,0.00
2023-11-24T00:40:34.496Z,0.00
2023-11-24T00:41:34.469Z,0.00
2023-11-24T00:42:35.534Z,0.00
2023-11-24T00:43:34.443Z,0.00
2023-11-24T00:44:34.423Z,0.00
2023-11-24T00:45:34.477Z,0.00
2023-11-24T00:46:34.413Z,0.00
2023-11-24T00:47:34.466Z,0.00
2023-11-24T00:48:34.432Z,0.00
2023-11-24T00:49:34.365Z,0.00
2023-11-24T00:50:34.771Z,0.00
2023-11-24T00:51:34.448Z,0.00
2023-11-24T00:52:34.378Z,0.00
2023-11-24T00:53:34.331Z,0.00
2023-11-24T00:54:34.490Z,0.00
2023-11-24T00:55:35.295Z,0.00
2023-11-24T00:56:34.290Z,0.00
2023-11-24T00:57:35.236Z,0.00
2023-11-24T00:58:34.270Z,0.00
2023-11-24T00:59:34.418Z,0.00
2023-11-24T01:00:34.371Z,0.00
2023-11-24T01:01:34.349Z,0.00
2023-11-24T01:02:35.232Z,0.00
2023-11-24T01:03:34.338Z,0.00
2023-11-24T01:04:34.249Z,0.00
2023-11-24T01:05:35.184Z,0.00
2023-11-24T01:06:34.272Z,0.00
2023-11-24T01:07:34.190Z,0.00
2023-11-24T01:08:34.193Z,0.00
2023-11-24T01:09:35.281Z,0.00
2023-11-24T01:10:34.148Z,0.00
2023-11-24T01:11:34.171Z,0.00
2023-11-24T01:12:34.165Z,0.00
2023-11-24T01:13:35.074Z,0.00
2023-11-24T01:14:34.123Z,0.00
2023-11-24T01:15:34.126Z,0.00
2023-11-24T01:16:34.093Z,0.00
2023-11-24T01:17:34.177Z,0.00
2023-11-24T01:18:34.131Z,0.00
2023-11-24T01:19:35.023Z,0.00
2023-11-24T01:20:34.033Z,0.00
2023-11-24T01:21:34.045Z,0.00
2023-11-24T01:22:34.010Z,0.00
2023-11-24T01:23:33.984Z,0.00
2023-11-24T01:24:34.959Z,0.00
2023-11-24T01:25:33.970Z,0.00
2023-11-24T01:26:33.965Z,0.00
2023-11-24T01:27:33.994Z,0.00
2023-11-24T01:28:33.925Z,0.00
2023-11-24T01:29:33.906Z,0.00
2023-11-24T01:30:34.941Z,0.00
2023-11-24T01:31:33.924Z,0.00
2023-11-24T01:32:33.889Z,0.00
2023-11-24T01:33:33.968Z,0.00
2023-11-24T01:34:33.951Z,0.00
2023-11-24T01:35:33.868Z,0.00
2023-11-24T01:36:34.885Z,0.00
2023-11-24T01:37:33.891Z,0.00
2023-11-24T01:38:33.799Z,0.00
2023-11-24T01:39:33.824Z,0.00
2023-11-24T01:40:33.778Z,0.00
2023-11-24T01:41:33.790Z,0.00
2023-11-24T01:42:33.813Z,0.00
2023-11-24T01:43:33.752Z,0.00
2023-11-24T01:44:33.729Z,0.00
2023-11-24T01:45:33.795Z,0.00
2023-11-24T01:46:33.762Z,0.00
2023-11-24T01:47:33.743Z,0.00
2023-11-24T01:48:33.787Z,0.00
2023-11-24T01:49:33.683Z,0.00
2023-11-24T01:50:33.679Z,0.00
2023-11-24T01:51:33.752Z,0.00
2023-11-24T01:52:33.656Z,0.00
2023-11-24T01:53:33.648Z,0.00
2023-11-24T01:54:33.680Z,0.00
2023-11-24T01:55:33.657Z,0.00
2023-11-24T01:56:34.573Z,0.00
2023-11-24T01:57:33.640Z,0.00
2023-11-24T01:58:33.582Z,0.00
2023-11-24T01:59:33.587Z,0.00
2023-11-24T02:00:33.630Z,0.00
2023-11-24T02:01:33.581Z,0.00
2023-11-24T02:02:33.631Z,0.00
2023-11-24T02:03:33.677Z,0.00
2023-11-24T02:04:33.522Z,0.00
2023-11-24T02:05:33.522Z,0.00
2023-11-24T02:06:33.538Z,0.00
2023-11-24T02:07:33.505Z,0.00
2023-11-24T02:08:33.486Z,0.00
2023-11-24T02:09:33.507Z,0.00
2023-11-24T02:10:33.465Z,0.00
2023-11-24T02:11:33.485Z,0.00
2023-11-24T02:12:33.488Z,0.00
2023-11-24T02:13:33.444Z,0.00
2023-11-24T02:14:42.079Z,0.00
2023-11-24T02:15:33.439Z,0.00
2023-11-24T02:16:35.156Z,0.00
2023-11-24T02:17:35.102Z,0.00
2023-11-24T02:18:33.458Z,0.00
2023-11-24T02:19:33.357Z,0.00
2023-11-24T02:20:33.386Z,0.00
2023-11-24T02:21:33.400Z,0.00
2023-11-24T02:22:33.324Z,0.00
2023-11-24T02:23:33.335Z,0.00
2023-11-24T02:24:34.092Z,0.00
2023-11-24T02:25:33.311Z,0.00
2023-11-24T02:26:33.269Z,0.00
2023-11-24T02:27:33.320Z,0.00
2023-11-24T02:28:33.286Z,0.00
2023-11-24T02:29:33.261Z,0.00
2023-11-24T02:30:33.308Z,0.00
2023-11-24T02:31:33.291Z,0.00
2023-11-24T02:32:33.215Z,0.00
2023-11-24T02:33:33.285Z,0.00
2023-11-24T02:34:33.249Z,0.00
2023-11-24T02:35:33.329Z,0.00
2023-11-24T02:36:33.222Z,0.00
2023-11-24T02:37:33.210Z,0.00
2023-11-24T02:38:33.141Z,0.00
2023-11-24T02:39:33.161Z,0.00
2023-11-24T02:40:33.137Z,0.00
2023-11-24T02:41:33.136Z,0.00
2023-11-24T02:42:33.211Z,0.00
2023-11-24T02:43:33.110Z,0.00
2023-11-24T02:44:33.149Z,0.00
2023-11-24T02:45:33.170Z,0.00
2023-11-24T02:46:33.074Z,0.00
2023-11-24T02:47:33.136Z,0.00
2023-11-24T02:48:33.186Z,0.00
2023-11-24T02:49:33.071Z,0.00
2023-11-24T02:50:33.034Z,0.00
2023-11-24T02:51:33.049Z,0.00
2023-11-24T02:52:33.022Z,0.00
2023-11-24T02:53:32.989Z,0.00
2023-11-24T02:54:33.037Z,0.00
2023-11-24T02:55:32.962Z,0.00
2023-11-24T02:56:32.941Z,0.00
2023-11-24T02:57:32.954Z,0.00
2023-11-24T02:58:32.931Z,0.00
2023-11-24T02:59:32.940Z,0.00
2023-11-24T03:00:32.977Z,0.00
2023-11-24T03:01:32.985Z,0.00
2023-11-24T03:02:33.011Z,0.00
2023-11-24T03:03:32.891Z,0.00
2023-11-24T03:04:32.937Z,0.00
2023-11-24T03:05:32.865Z,0.00
2023-11-24T03:06:32.911Z,0.00
2023-11-24T03:07:32.854Z,0.00
2023-11-24T03:08:32.826Z,0.00
2023-11-24T03:09:32.833Z,0.00
2023-11-24T03:10:32.823Z,0.00
2023-11-24T03:11:32.789Z,0.00
2023-11-24T03:12:33.851Z,0.00
2023-11-24T03:13:32.768Z,0.00
2023-11-24T03:14:32.767Z,0.00
2023-11-24T03:15:32.793Z,0.00
2023-11-24T03:16:32.809Z,0.00
2023-11-24T03:17:32.788Z,0.00
2023-11-24T03:18:32.811Z,0.00
2023-11-24T03:19:32.725Z,0.00
2023-11-24T03:20:32.711Z,0.00
2023-11-24T03:21:32.704Z,0.00
2023-11-24T03:22:32.688Z,0.00
2023-11-24T03:23:32.697Z,0.00
2023-11-24T03:24:32.748Z,0.00
2023-11-24T03:25:32.659Z,0.00
2023-11-24T03:26:32.642Z,0.00
2023-11-24T03:27:32.666Z,0.00
2023-11-24T03:28:32.626Z,0.00
2023-11-24T03:29:33.408Z,0.00
2023-11-24T03:30:32.689Z,0.00
2023-11-24T03:31:32.586Z,0.00
2023-11-24T03:32:32.631Z,0.00
2023-11-24T03:33:32.640Z,0.00
2023-11-24T03:34:32.674Z,0.00
2023-11-24T03:35:32.521Z,0.00
2023-11-24T03:36:32.681Z,0.00
2023-11-24T03:37:32.539Z,0.00
2023-11-24T03:38:32.517Z,0.00
2023-11-24T03:39:32.496Z,0.00
2023-11-24T03:40:32.510Z,0.00
2023-11-24T03:41:32.472Z,0.00
2023-11-24T03:42:32.545Z,0.00
2023-11-24T03:43:32.485Z,0.00
2023-11-24T03:44:32.444Z,0.00
2023-11-24T03:45:32.495Z,0.00
2023-11-24T03:46:32.464Z,0.00
2023-11-24T03:47:32.459Z,0.00
2023-11-24T03:48:32.480Z,0.00
2023-11-24T03:49:32.385Z,0.00
2023-11-24T03:50:32.412Z,0.00
2023-11-24T03:51:32.386Z,0.00
2023-11-24T03:52:32.351Z,0.00
2023-11-24T03:53:32.337Z,0.00
2023-11-24T03:54:32.389Z,0.00
2023-11-24T03:55:32.369Z,0.00
2023-11-24T03:56:32.316Z,0.00
2023-11-24T03:57:32.333Z,0.00
2023-11-24T03:58:32.284Z,0.00
2023-11-24T03:59:32.279Z,0.00
2023-11-24T04:00:32.435Z,0.00
2023-11-24T04:01:32.455Z,0.00
2023-11-24T04:02:32.280Z,0.00
2023-11-24T04:03:33.209Z,0.00
2023-11-24T04:04:32.308Z,0.00
2023-11-24T04:05:32.233Z,0.00
2023-11-24T04:06:32.254Z,0.00
2023-11-24T04:07:32.209Z,0.00
2023-11-24T04:08:32.173Z,0.00
2023-11-24T04:09:32.402Z,0.00
2023-11-24T04:10:32.159Z,0.00
2023-11-24T04:11:32.152Z,0.00
2023-11-24T04:12:32.253Z,0.00
2023-11-24T04:13:32.128Z,0.00
2023-11-24T04:14:32.115Z,0.00
2023-11-24T04:15:32.188Z,0.00
2023-11-24T04:16:32.165Z,0.00
2023-11-24T04:17:32.136Z,0.00
2023-11-24T04:18:32.164Z,0.00
2023-11-24T04:19:32.042Z,0.00
2023-11-24T04:20:32.075Z,0.00
2023-11-24T04:21:32.070Z,0.00
2023-11-24T04:22:32.024Z,0.00
2023-11-24T04:23:32.012Z,0.00
2023-11-24T04:24:32.103Z,0.00
2023-11-24T04:25:32.028Z,0.00
2023-11-24T04:26:32.029Z,0.00
2023-11-24T04:27:31.973Z,0.00
2023-11-24T04:28:31.981Z,0.00
2023-11-24T04:29:31.956Z,0.00
2023-11-24T04:30:32.009Z,0.00
2023-11-24T04:31:31.929Z,0.00
2023-11-24T04:32:32.002Z,0.00
2023-11-24T04:33:31.935Z,0.00
2023-11-24T04:34:31.988Z,0.00
2023-11-24T04:35:31.889Z,0.00
2023-11-24T04:36:31.993Z,0.00
2023-11-24T04:37:31.861Z,0.00
2023-11-24T04:38:31.905Z,0.00
2023-11-24T04:39:31.844Z,0.00
2023-11-24T04:40:31.831Z,0.00
2023-11-24T04:41:31.809Z,0.00
2023-11-24T04:42:31.856Z,0.00
2023-11-24T04:43:31.861Z,0.00
2023-11-24T04:44:31.818Z,0.00
2023-11-24T04:45:31.860Z,0.00
2023-11-24T04:46:31.900Z,0.00
2023-11-24T04:47:31.806Z,0.00
2023-11-24T04:48:31.842Z,0.00
2023-11-24T04:49:31.746Z,0.00
2023-11-24T04:50:31.731Z,0.00
2023-11-24T04:51:31.742Z,0.00
2023-11-24T04:52:31.718Z,0.00
2023-11-24T04:53:31.694Z,0.00
2023-11-24T04:54:31.774Z,0.00
2023-11-24T04:55:31.670Z,0.00
2023-11-24T04:56:31.671Z,0.00
2023-11-24T04:57:31.668Z,0.00
2023-11-24T04:58:31.651Z,0.00
2023-11-24T04:59:31.633Z,0.00
2023-11-24T05:00:31.695Z,0.00
2023-11-24T05:01:32.660Z,0.00
2023-11-24T05:02:31.701Z,0.00
2023-11-24T05:03:32.350Z,0.00
2023-11-24T05:04:31.669Z,0.00
2023-11-24T05:05:31.574Z,0.00
2023-11-24T05:06:31.603Z,0.00
2023-11-24T05:07:31.552Z,0.00
2023-11-24T05:08:31.583Z,0.00
2023-11-24T05:09:32.571Z,0.00
2023-11-24T05:10:31.499Z,0.00
2023-11-24T05:11:32.482Z,0.00
2023-11-24T05:12:31.570Z,0.00
2023-11-24T05:13:31.481Z,0.00
2023-11-24T05:14:31.465Z,0.00
2023-11-24T05:15:31.487Z,0.00
2023-11-24T05:16:31.528Z,0.00
2023-11-24T05:17:31.444Z,0.00
2023-11-24T05:18:31.502Z,0.00
2023-11-24T05:19:31.414Z,0.00
2023-11-24T05:20:31.416Z,0.00
2023-11-24T05:21:31.401Z,0.00
2023-11-24T05:22:31.412Z,0.00
2023-11-24T05:23:31.406Z,0.00
2023-11-24T05:24:31.404Z,0.00
2023-11-24T05:25:31.374Z,0.00
2023-11-24T05:26:31.338Z,0.00
2023-11-24T05:27:31.358Z,0.00
2023-11-24T05:28:31.323Z,0.00
2023-11-24T05:29:31.296Z,0.00
2023-11-24T05:30:31.361Z,0.00
2023-11-24T05:31:31.323Z,0.00
2023-11-24T05:32:31.316Z,0.00
2023-11-24T05:33:31.298Z,0.00
2023-11-24T05:34:31.260Z,0.00
2023-11-24T05:35:31.238Z,0.00
2023-11-24T05:36:31.277Z,0.00
2023-11-24T05:37:31.239Z,0.00
2023-11-24T05:38:31.213Z,0.00
2023-11-24T05:39:31.284Z,0.00
2023-11-24T05:40:31.198Z,0.00
2023-11-24T05:41:31.171Z,0.00
2023-11-24T05:42:31.373Z,0.00
2023-11-24T05:43:31.139Z,0.00
2023-11-24T05:44:31.133Z,0.00
2023-11-24T05:45:38.393Z,0.00
2023-11-24T05:46:31.203Z,0.00
2023-11-24T05:47:31.151Z,0.00
2023-11-24T05:48:33.941Z,0.00
2023-11-24T05:49:31.075Z,0.00
2023-11-24T05:50:31.110Z,0.00
2023-11-24T05:51:31.094Z,0.00
2023-11-24T05:52:31.125Z,0.00
2023-11-24T05:53:31.056Z,0.00
2023-11-24T05:54:31.095Z,0.00
2023-11-24T05:55:31.053Z,0.00
2023-11-24T05:56:31.020Z,0.00
2023-11-24T05:57:31.020Z,0.00
2023-11-24T05:58:30.996Z,0.00
2023-11-24T05:59:31.795Z,0.00
2023-11-24T06:00:31.058Z,0.00
2023-11-24T06:01:30.960Z,0.00
2023-11-24T06:02:30.948Z,0.00
2023-11-24T06:03:31.035Z,0.00
2023-11-24T06:04:31.060Z,0.00
2023-11-24T06:05:30.958Z,0.00
2023-11-24T06:06:30.948Z,0.00
2023-11-24T06:07:30.886Z,0.00
2023-11-24T06:08:30.888Z,0.00
2023-11-24T06:09:31.151Z,0.00
2023-11-24T06:10:31.545Z,0.00
2023-11-24T06:11:30.840Z,0.00
2023-11-24T06:12:31.156Z,0.00
2023-11-24T06:13:30.814Z,0.00
2023-11-24T06:14:30.828Z,0.00
2023-11-24T06:15:30.829Z,0.00
2023-11-24T06:16:30.808Z,0.00
2023-11-24T06:17:31.182Z,0.00
2023-11-24T06:18:30.817Z,0.00
2023-11-24T06:19:30.744Z,0.00
2023-11-24T06:20:30.746Z,0.00
2023-11-24T06:21:30.852Z,0.00
2023-11-24T06:22:30.724Z,0.00
2023-11-24T06:23:30.713Z,4.00
2023-11-24T06:24:30.805Z,0.00
2023-11-24T06:25:30.695Z,0.00
2023-11-24T06:26:30.687Z,4.00
2023-11-24T06:27:30.713Z,4.00
2023-11-24T06:28:30.670Z,4.00
2023-11-24T06:29:30.651Z,4.00
2023-11-24T06:30:30.723Z,4.00
2023-11-24T06:31:30.642Z,8.00
2023-11-24T06:32:30.643Z,8.00
2023-11-24T06:33:30.658Z,8.00
2023-11-24T06:34:31.185Z,12.00
2023-11-24T06:35:30.598Z,12.00
2023-11-24T06:36:32.955Z,16.00
2023-11-24T06:37:30.584Z,20.00
2023-11-24T06:38:30.563Z,24.00
2023-11-24T06:39:30.573Z,24.00
2023-11-24T06:40:30.555Z,28.00
2023-11-24T06:41:30.518Z,28.00
2023-11-24T06:42:30.562Z,28.00
2023-11-24T06:43:30.524Z,32.00
2023-11-24T06:44:30.508Z,36.00
2023-11-24T06:45:30.583Z,36.00
2023-11-24T06:46:30.501Z,44.00
2023-11-24T06:47:30.481Z,52.00
2023-11-24T06:48:30.538Z,56.00
2023-11-24T06:49:30.454Z,52.00
2023-11-24T06:50:30.437Z,48.00
2023-11-24T06:51:30.460Z,52.00
2023-11-24T06:52:30.420Z,56.00
2023-11-24T06:53:30.388Z,64.00
2023-11-24T06:54:30.421Z,68.00
2023-11-24T06:55:30.368Z,68.00
2023-11-24T06:56:30.447Z,72.00
2023-11-24T06:57:30.382Z,76.00
2023-11-24T06:58:30.346Z,88.00
2023-11-24T06:59:30.327Z,92.00
2023-11-24T07:00:30.393Z,96.00
2023-11-24T07:01:30.443Z,100.00
2023-11-24T07:02:30.435Z,108.00
2023-11-24T07:03:30.307Z,116.00
2023-11-24T07:04:30.303Z,116.00
2023-11-24T07:05:30.276Z,116.00
2023-11-24T07:06:30.295Z,124.00
2023-11-24T07:07:30.284Z,136.00
2023-11-24T07:08:30.230Z,156.00
2023-11-24T07:09:30.220Z,184.00
2023-11-24T07:10:30.248Z,196.00
2023-11-24T07:11:30.202Z,168.00
2023-11-24T07:12:30.231Z,160.00
2023-11-24T07:13:30.188Z,152.00
2023-11-24T07:14:30.154Z,144.00
2023-11-24T07:15:30.166Z,152.00
2023-11-24T07:16:30.170Z,160.00
2023-11-24T07:17:30.165Z,172.00
2023-11-24T07:18:30.302Z,184.00
2023-11-24T07:19:30.191Z,180.00
2023-11-24T07:20:30.088Z,184.00
2023-11-24T07:21:30.095Z,188.00
2023-11-24T07:22:30.066Z,204.00
2023-11-24T07:23:30.077Z,232.00
2023-11-24T07:24:30.086Z,256.00
2023-11-24T07:25:30.050Z,284.00
2023-11-24T07:26:30.038Z,292.00
2023-11-24T07:27:32.180Z,284.00
2023-11-24T07:28:29.998Z,276.00
2023-11-24T07:29:30.023Z,304.00
2023-11-24T07:30:30.027Z,360.00
2023-11-24T07:31:29.983Z,408.00
2023-11-24T07:32:29.981Z,432.00
2023-11-24T07:33:29.973Z,428.00
2023-11-24T07:34:30.032Z,400.00
2023-11-24T07:35:29.952Z,328.00
2023-11-24T07:36:29.947Z,292.00
2023-11-24T07:37:29.939Z,280.00
2023-11-24T07:38:29.898Z,284.00
2023-11-24T07:39:29.928Z,308.00
2023-11-24T07:40:29.880Z,332.00
2023-11-24T07:41:29.908Z,320.00
2023-11-24T07:42:29.912Z,288.00
2023-11-24T07:43:29.862Z,284.00
2023-11-24T07:44:29.862Z,280.00
2023-11-24T07:45:29.838Z,248.00
2023-11-24T07:46:29.922Z,224.00
2023-11-24T07:47:29.838Z,208.00
2023-11-24T07:48:29.809Z,208.00
2023-11-24T07:49:29.790Z,220.00
2023-11-24T07:50:29.772Z,248.00
2023-11-24T07:51:29.774Z,288.00
2023-11-24T07:52:29.757Z,336.00
2023-11-24T07:53:29.755Z,344.00
2023-11-24T07:54:29.776Z,308.00
2023-11-24T07:55:29.731Z,292.00
2023-11-24T07:56:29.708Z,252.00
2023-11-24T07:57:29.699Z,244.00
2023-11-24T07:58:29.678Z,228.00
2023-11-24T07:59:29.706Z,292.00
2023-11-24T08:00:29.688Z,388.00
2023-11-24T08:01:29.754Z,552.00
2023-11-24T08:02:29.703Z,720.00
2023-11-24T08:03:29.686Z,948.00
2023-11-24T08:04:29.851Z,1176.00
2023-11-24T08:05:29.621Z,1200.00
2023-11-24T08:06:29.639Z,1296.00
2023-11-24T08:07:29.611Z,1316.00
2023-11-24T08:08:29.587Z,1256.00
2023-11-24T08:09:29.584Z,1112.00
2023-11-24T08:10:29.570Z,1016.00
2023-11-24T08:11:29.568Z,968.00
2023-11-24T08:12:29.571Z,988.00
2023-11-24T08:13:29.531Z,1004.00
2023-11-24T08:14:29.508Z,940.00
2023-11-24T08:15:29.535Z,956.00
2023-11-24T08:16:29.722Z,1092.00
2023-11-24T08:17:29.557Z,1240.00
2023-11-24T08:18:29.514Z,1340.00
2023-11-24T08:19:29.478Z,1396.00
2023-11-24T08:20:29.460Z,1380.00
2023-11-24T08:21:29.456Z,1316.00
2023-11-24T08:22:29.442Z,1272.00
2023-11-24T08:23:29.450Z,1260.00
2023-11-24T08:24:29.434Z,1320.00
2023-11-24T08:25:29.406Z,1352.00
2023-11-24T08:26:29.375Z,1320.00
2023-11-24T08:27:29.401Z,1252.00
2023-11-24T08:28:29.355Z,1160.00
2023-11-24T08:29:29.350Z,1080.00
2023-11-24T08:30:29.381Z,1008.00
2023-11-24T08:31:29.343Z,936.00
2023-11-24T08:32:29.358Z,948.00
2023-11-24T08:33:29.333Z,1068.00
2023-11-24T08:34:29.435Z,1200.00
2023-11-24T08:35:30.299Z,1296.00
2023-11-24T08:36:29.302Z,1396.00
2023-11-24T08:37:29.281Z,1412.00
2023-11-24T08:38:29.250Z,1404.00
2023-11-24T08:39:29.270Z,1436.00
2023-11-24T08:40:29.243Z,1500.00
2023-11-24T08:41:35.539Z,1580.00
2023-11-24T08:42:30.251Z,1656.00
2023-11-24T08:43:29.218Z,1708.00
2023-11-24T08:44:29.208Z,1704.00
2023-11-24T08:45:29.230Z,1680.00
2023-11-24T08:46:29.240Z,1632.00
2023-11-24T08:47:29.367Z,1564.00
2023-11-24T08:48:29.197Z,1484.00
2023-11-24T08:49:29.147Z,1416.00
2023-11-24T08:50:29.122Z,1368.00
2023-11-24T08:51:30.087Z,1348.00
2023-11-24T08:52:29.120Z,1332.00
2023-11-24T08:53:29.091Z,1324.00
2023-11-24T08:54:29.127Z,1292.00
2023-11-24T08:55:29.131Z,1280.00
2023-11-24T08:56:29.055Z,1312.00
2023-11-24T08:57:29.063Z,1332.00
2023-11-24T08:58:29.055Z,1364.00
2023-11-24T08:59:29.031Z,1412.00
2023-11-24T09:00:29.071Z,1428.00
2023-11-24T09:01:30.616Z,1420.00
2023-11-24T09:02:29.050Z,1404.00
2023-11-24T09:03:29.001Z,1416.00
2023-11-24T09:04:29.176Z,1480.00
2023-11-24T09:05:29.061Z,1544.00
2023-11-24T09:06:29.000Z,1608.00
2023-11-24T09:07:28.947Z,1656.00
2023-11-24T09:08:28.958Z,1672.00
2023-11-24T09:09:28.930Z,1708.00
2023-11-24T09:10:28.906Z,1784.00
2023-11-24T09:11:28.904Z,1888.00
2023-11-24T09:12:28.931Z,1988.00
2023-11-24T09:13:28.903Z,2060.00
2023-11-24T09:14:28.907Z,2168.00
2023-11-24T09:15:28.921Z,2368.00
2023-11-24T09:16:28.947Z,2584.00
2023-11-24T09:17:28.872Z,2724.00
2023-11-24T09:18:28.854Z,2756.00
2023-11-24T09:19:28.826Z,2748.00
2023-11-24T09:20:28.821Z,2752.00
2023-11-24T09:21:28.807Z,2788.00
2023-11-24T09:22:28.785Z,2780.00
2023-11-24T09:23:28.812Z,2684.00
2023-11-24T09:24:28.847Z,2616.00
2023-11-24T09:25:29.772Z,2616.00
2023-11-24T09:26:28.746Z,2648.00
2023-11-24T09:27:28.740Z,2664.00
2023-11-24T09:28:28.724Z,2608.00
2023-11-24T09:29:28.742Z,2544.00
2023-11-24T09:30:28.746Z,2500.00
2023-11-24T09:31:28.763Z,2468.00
2023-11-24T09:32:28.695Z,2404.00
2023-11-24T09:33:28.675Z,2356.00
2023-11-24T09:34:28.745Z,2444.00
2023-11-24T09:35:28.661Z,2684.00
2023-11-24T09:36:28.666Z,2932.00
2023-11-24T09:37:28.645Z,3100.00
2023-11-24T09:38:28.623Z,3344.00
2023-11-24T09:39:28.656Z,3732.00
2023-11-24T09:40:28.590Z,3888.00
2023-11-24T09:41:28.597Z,3836.00
2023-11-24T09:42:28.607Z,3776.00
2023-11-24T09:43:29.542Z,3664.00
2023-11-24T09:44:28.553Z,3644.00
2023-11-24T09:45:28.558Z,3848.00
2023-11-24T09:46:36.509Z,4264.00
2023-11-24T09:47:30.579Z,4780.00
2023-11-24T09:48:28.550Z,5248.00
2023-11-24T09:49:28.502Z,5528.00
2023-11-24T09:50:28.530Z,5644.00
2023-11-24T09:51:28.486Z,5656.00
2023-11-24T09:52:28.470Z,5616.00
2023-11-24T09:53:28.507Z,5980.00
2023-11-24T09:54:28.442Z,5692.00
2023-11-24T09:55:28.736Z,5076.00
2023-11-24T09:56:28.415Z,4848.00
2023-11-24T09:57:28.417Z,4772.00
2023-11-24T09:58:28.395Z,4788.00
2023-11-24T09:59:28.432Z,4748.00
2023-11-24T10:00:29.231Z,5388.00
2023-11-24T10:01:28.378Z,8176.00
2023-11-24T10:02:28.457Z,19200.00
2023-11-24T10:03:29.207Z,19520.00
2023-11-24T10:04:28.411Z,19008.00
2023-11-24T10:05:28.421Z,18912.00
2023-11-24T10:06:28.332Z,18944.00
2023-11-24T10:07:28.306Z,18496.00
2023-11-24T10:08:28.281Z,18656.00
2023-11-24T10:09:28.289Z,18880.00
2023-11-24T10:10:28.301Z,19232.00
2023-11-24T10:11:28.289Z,19424.00
2023-11-24T10:12:28.259Z,19840.00
2023-11-24T10:13:28.243Z,20192.00
2023-11-24T10:14:28.275Z,21280.00
2023-11-24T10:15:28.217Z,22528.00
2023-11-24T10:16:28.243Z,23648.00
2023-11-24T10:17:28.291Z,23584.00
2023-11-24T10:18:28.176Z,22368.00
2023-11-24T10:19:28.220Z,14004.00
2023-11-24T10:20:28.167Z,23744.00
2023-11-24T10:21:32.513Z,25408.00
2023-11-24T10:22:29.182Z,31968.00
2023-11-24T10:23:28.135Z,28672.00
2023-11-24T10:24:28.117Z,15808.00
2023-11-24T10:25:28.135Z,16416.00
2023-11-24T10:26:28.113Z,50368.00
2023-11-24T10:27:28.078Z,48320.00
2023-11-24T10:28:28.130Z,27360.00
2023-11-24T10:29:28.062Z,16480.00
2023-11-24T10:30:28.060Z,37344.00
2023-11-24T10:31:28.065Z,24096.00
2023-11-24T10:32:28.043Z,17216.00
2023-11-24T10:33:35.265Z,10736.00
2023-11-24T10:34:29.156Z,9372.00
2023-11-24T10:35:28.080Z,8084.00
2023-11-24T10:36:28.005Z,7068.00
2023-11-24T10:37:27.992Z,7140.00
2023-11-24T10:38:27.955Z,7716.00
2023-11-24T10:39:27.979Z,7780.00
2023-11-24T10:40:27.975Z,8664.00
2023-11-24T10:41:27.942Z,8688.00
2023-11-24T10:42:27.914Z,8632.00
2023-11-24T10:43:27.927Z,8076.00
2023-11-24T10:44:27.880Z,8820.00
2023-11-24T10:45:27.911Z,8876.00
2023-11-24T10:46:28.031Z,17408.00
2023-11-24T10:47:27.911Z,17632.00
2023-11-24T10:48:27.872Z,26912.00
2023-11-24T10:49:27.854Z,9780.00
2023-11-24T10:50:28.832Z,9128.00
2023-11-24T10:51:27.849Z,11232.00
2023-11-24T10:52:27.834Z,12432.00
2023-11-24T10:53:27.803Z,11984.00
2023-11-24T10:54:27.784Z,11924.00
2023-11-24T10:55:27.793Z,36992.00
2023-11-24T10:56:27.778Z,31488.00
2023-11-24T10:57:27.770Z,45440.00
2023-11-24T10:58:27.811Z,53888.00
2023-11-24T10:59:27.757Z,58528.00
2023-11-24T11:00:27.744Z,63680.00
2023-11-24T11:01:27.801Z,49120.00
2023-11-24T11:02:27.767Z,66592.00
2023-11-24T11:03:27.745Z,67872.00
2023-11-24T11:04:27.750Z,62944.00
2023-11-24T11:05:27.738Z,67104.00
2023-11-24T11:06:27.664Z,40512.00
2023-11-24T11:07:27.690Z,45952.00
2023-11-24T11:08:27.635Z,41280.00
2023-11-24T11:09:27.638Z,24896.00
2023-11-24T11:10:27.751Z,67200.00
2023-11-24T11:11:27.628Z,66208.00
2023-11-24T11:12:27.590Z,32416.00
2023-11-24T11:13:27.590Z,62336.00
2023-11-24T11:14:27.583Z,50912.00
2023-11-24T11:15:27.594Z,66816.00
2023-11-24T11:16:27.634Z,71040.00
2023-11-24T11:17:27.563Z,75072.00
2023-11-24T11:18:27.546Z,50880.00
2023-11-24T11:19:27.520Z,57696.00
2023-11-24T11:20:27.515Z,45056.00
2023-11-24T11:21:27.507Z,26912.00
2023-11-24T11:22:27.530Z,71904.00
2023-11-24T11:23:27.501Z,21856.00
2023-11-24T11:24:27.476Z,17632.00
2023-11-24T11:25:27.460Z,15872.00
2023-11-24T11:26:27.464Z,17440.00
2023-11-24T11:27:27.413Z,15328.00
2023-11-24T11:28:27.444Z,13444.00
2023-11-24T11:29:27.410Z,11340.00
2023-11-24T11:30:27.433Z,8372.00
2023-11-24T11:31:27.493Z,6720.00
2023-11-24T11:32:27.494Z,6688.00
2023-11-24T11:33:27.357Z,4680.00
2023-11-24T11:34:27.400Z,4524.00
2023-11-24T11:35:27.346Z,4692.00
2023-11-24T11:36:27.327Z,5040.00
2023-11-24T11:37:27.338Z,6208.00
2023-11-24T11:38:27.326Z,6316.00
2023-11-24T11:39:27.401Z,6900.00
2023-11-24T11:40:27.347Z,9192.00
2023-11-24T11:41:27.275Z,11200.00
2023-11-24T11:42:27.296Z,47776.00
2023-11-24T11:43:27.350Z,17472.00
2023-11-24T11:44:27.874Z,25920.00
2023-11-24T11:45:27.246Z,24736.00
2023-11-24T11:46:27.321Z,53792.00
2023-11-24T11:47:27.298Z,22080.00
2023-11-24T11:48:27.214Z,48960.00
2023-11-24T11:49:27.176Z,25184.00
2023-11-24T11:50:27.192Z,47008.00
2023-11-24T11:51:27.159Z,8880.00
2023-11-24T11:52:27.723Z,6284.00
2023-11-24T11:53:27.143Z,6232.00
2023-11-24T11:54:27.137Z,7528.00
2023-11-24T11:55:27.179Z,11588.00
2023-11-24T11:56:27.135Z,47840.00
2023-11-24T11:57:27.102Z,26080.00
2023-11-24T11:58:27.189Z,11468.00
2023-11-24T11:59:27.085Z,10076.00
2023-11-24T12:00:27.127Z,13632.00
2023-11-24T12:01:27.130Z,16480.00
2023-11-24T12:02:27.125Z,15872.00
2023-11-24T12:03:27.077Z,22304.00
2023-11-24T12:04:27.118Z,43072.00
2023-11-24T12:05:27.062Z,17952.00
2023-11-24T12:06:27.045Z,53728.00
2023-11-24T12:07:27.024Z,64416.00
2023-11-24T12:08:26.998Z,85600.00
2023-11-24T12:09:26.957Z,84096.00
2023-11-24T12:10:27.101Z,86208.00
2023-11-24T12:11:26.949Z,32832.00
2023-11-24T12:12:26.944Z,22528.00
2023-11-24T12:13:27.937Z,16128.00
2023-11-24T12:14:26.937Z,4704.00
2023-11-24T12:15:26.918Z,6556.00
2023-11-24T12:16:27.962Z,3468.00
2023-11-24T12:17:26.872Z,2724.00
2023-11-24T12:18:26.883Z,2564.00
2023-11-24T12:19:26.862Z,2820.00
2023-11-24T12:20:26.847Z,2812.00
2023-11-24T12:21:26.830Z,2716.00
2023-11-24T12:22:26.899Z,2588.00
2023-11-24T12:23:26.814Z,2268.00
2023-11-24T12:24:26.809Z,2072.00
2023-11-24T12:25:26.832Z,3572.00
2023-11-24T12:26:26.791Z,5456.00
2023-11-24T12:27:26.779Z,6804.00
2023-11-24T12:28:26.869Z,6160.00
2023-11-24T12:29:26.792Z,5272.00
2023-11-24T12:30:26.746Z,5204.00
2023-11-24T12:31:26.834Z,8608.00
2023-11-24T12:32:26.721Z,8216.00
2023-11-24T12:33:26.716Z,6516.00
2023-11-24T12:34:26.772Z,5920.00
2023-11-24T12:35:26.684Z,6744.00
2023-11-24T12:36:26.681Z,7524.00
2023-11-24T12:37:26.734Z,9664.00
2023-11-24T12:38:26.668Z,8868.00
2023-11-24T12:39:26.643Z,6140.00
2023-11-24T12:40:26.737Z,5472.00
2023-11-24T12:41:26.632Z,6616.00
2023-11-24T12:42:26.619Z,8792.00